Weather observations for the past three days for
Ruston, Ruston Regional Airport
Imperial (Metric)
Date Time (cdt) Wind (mph) Vis. (mi.) Weather Sky Cond. Temperature (ºF) Relative Humidity Wind Chill (°F) Heat Index (°F) Pressure Precipitation (in)
Air Dwpt 6 hour altimeter (in) sea level (mb) 1 hr 3 hr 6 hr
Max. Min.
03 22:55 Calm 10.00 Fair CLR 77.4 77.4 100% 79 29.93 0.0
03 22:35 Calm 9.00 Fair CLR 77.7 77.7 100% 80 29.94 0.0
03 22:15 Calm 10.00 Fair CLR 79.3 77.9 95% 84 29.93 0.0
03 21:55 E 6 10.00 Fair CLR 80.4 77.2 90% 87 29.93 0.0
03 21:35 Calm 10.00 Fair CLR 80.8 78.4 93% 88 29.93 0.0
03 21:15 Calm 10.00 Fair CLR 82.6 77.2 84% 91 29.92 0.0
03 20:55 SE 3 10.00 Fair CLR 79.3 79.3 100% 85 29.91 0.0
03 20:35 Calm 10.00 Fair CLR 79.7 79.7 100% 86 29.91 0.0
03 20:15 Calm 10.00 A Few Clouds FEW070 80.6 79 95% 88 29.91 0.0
03 19:55 SE 3 10.00 A Few Clouds FEW070 83.8 79.5 87% 96 29.91 0.0
03 19:35 Calm 9.00 Fair CLR 82.4 79.7 92% 93 29.91 0.0
03 19:15 S 3 10.00 Fair CLR 84.4 77.9 81% 95 29.9 0.0
03 18:55 Calm 10.00 Fair CLR 87.4 80.8 97.5 78.1 81% 105 29.89 0.0 0.12
03 18:35 Calm 10.00 Fair CLR 89.4 81.5 78% 109 29.89 0.0
03 18:15 Calm 10.00 Fair CLR 93 80.4 67% 113 29.89 0.0
03 17:55 Calm 10.00 Fair CLR 93 79.5 65% 111 29.89 0.0
03 17:35 Calm 10.00 Fair CLR 92.3 78.3 64% 108 29.89 0.0
03 17:15 Calm 10.00 Fair CLR 93.7 77.2 59% 108 29.9 0.0
03 16:55 Calm 10.00 A Few Clouds FEW070 91.2 80.6 71% 111 29.9 0.0
03 16:35 Calm 10.00 Fair CLR 86.5 83.8 92% 108 29.91 0.0
03 16:15 Calm 10.00 A Few Clouds FEW100 85.5 82.6 91% 104 29.92 0.0
03 15:35 Vrbl 3 8.00 Mostly Cloudy FEW060 SCT075 BKN110 81 77.2 88% 88 29.93 0.0 0.12
03 15:15 Vrbl 5 4.00 Light Rain Fog/Mist BKN070 78.3 77 96% 81 29.94 0.0 0.11
03 14:55 SE 16 G 26 9.00 Overcast BKN060 OVC070 91.4 74.7 58% 102 29.95 0.0
03 14:35 SE 6 10.00 Mostly Cloudy BKN065 94.3 69.6 45% 100 29.94 0.0
03 14:15 SE 6 10.00 Mostly Cloudy BKN060 93.7 70 46% 100 29.95 0.0
03 13:55 Vrbl 3 10.00 Partly Cloudy SCT060 95.5 70.5 44% 103 29.96 0.0
03 13:35 Calm 10.00 Mostly Cloudy SCT055 BKN070 94.1 71.2 48% 102 29.96 0.0
03 13:15 E 7 10.00 Mostly Cloudy BKN049 BKN060 93.2 71.4 49% 101 29.97 0.0
03 12:55 Calm 10.00 Mostly Cloudy BKN047 91.2 71.8 94.5 72.1 53% 99 29.98 0.0
03 12:35 Vrbl 5 10.00 Mostly Cloudy BKN046 93 72.9 52% 102 29.99 0.0
03 12:15 Vrbl 3 10.00 Partly Cloudy SCT045 90.3 73.2 57% 99 29.99 0.0
03 11:55 Calm 10.00 A Few Clouds FEW042 90 73.9 59% 99 30 0.0
03 11:35 S 6 10.00 Fair CLR 90.7 74.1 58% 100 30 0.0
03 11:15 Vrbl 3 10.00 A Few Clouds FEW035 90.1 74.3 60% 100 30.01 0.0
03 10:55 Calm 10.00 Fair CLR 90 74.8 61% 100 30.01 0.0
03 10:35 SE 3 10.00 Fair CLR 89.2 74.8 63% 99 30.01 0.0
03 10:15 Calm 10.00 Fair CLR 87.6 77.2 71% 100 30.01 0.0
03 09:55 SW 6 10.00 Fair CLR 86 78.1 77% 98 30.01 0.0
03 09:15 Calm 10.00 Fair CLR 83.1 79.3 88% 94 30.01 0.0
03 08:55 Calm 10.00 Fair CLR 81 79.2 94% 89 30.01 0.0
03 08:35 S 3 10.00 Fair CLR 79.5 79 98% 85 30.02 0.0
03 08:15 Calm 10.00 Fair CLR 78.3 78.3 100% 81 30.02 0.0
03 07:55 Calm 7.00 Fair CLR 74.5 74.5 100% 30.02 0.0
03 07:35 Calm 7.00 Fair CLR 73.2 73.2 100% 30.01 0.0
03 07:15 Calm 7.00 Fair CLR 72.5 72.5 100% 30.01 0.0
03 06:55 Calm 8.00 Fair CLR 72.5 72.5 76.8 72.5 100% 30 0.0
03 06:35 Calm 8.00 Fair CLR 72.9 72.9 100% 30 0.0
03 06:15 Calm 8.00 Fair CLR 73 73 100% 30 0.0
03 05:55 Calm 9.00 Fair CLR 73.6 73.6 100% 29.99 0.0
03 05:35 Calm 8.00 Fair CLR 73.2 73.2 100% 29.99 0.0
03 05:15 Calm 10.00 Fair CLR 74.1 74.1 100% 29.98 0.0
03 04:55 Calm 9.00 Fair CLR 74.3 74.3 100% 29.98 0.0
03 04:35 Calm 10.00 Fair CLR 74.7 74.7 100% 29.98 0.0
03 04:15 Calm 9.00 Fair CLR 74.7 74.7 100% 29.98 0.0
03 03:55 S 3 10.00 Fair CLR 74.8 74.8 100% 29.98 0.0
03 03:35 Calm 10.00 Fair CLR 74.8 74.8 100% 29.97 0.0
03 03:15 SE 5 9.00 Fair CLR 75 75 100% 72 29.97 0.0
03 02:55 Calm 9.00 Fair CLR 74.8 74.8 100% 29.97 0.0
03 02:35 Calm 9.00 Fair CLR 75.2 75.2 100% 73 29.97 0.0
03 02:15 S 3 9.00 Fair CLR 75.6 75.6 100% 74 29.97 0.0
03 01:55 Calm 9.00 Fair CLR 75.7 75.7 100% 74 29.97 0.0
03 01:35 S 5 10.00 Fair CLR 76.1 76.1 100% 75 29.98 0.0
03 01:15 Calm 10.00 Fair CLR 76.3 76.3 100% 76 29.98 0.0
03 00:55 S 5 9.00 Fair CLR 76.8 76.8 83.8 76.5 100% 77 29.98 0.0
03 00:35 S 5 9.00 Fair CLR 77 77 100% 78 29.97 0.0
03 00:15 S 3 9.00 Fair CLR 76.6 76.6 100% 77 29.98 0.0
02 23:35 S 5 10.00 Fair CLR 77.2 77.2 100% 78 29.98 0.0
02 23:15 S 5 10.00 Fair CLR 77.7 77.7 100% 80 29.98 0.0
02 22:55 Calm 10.00 Fair CLR 77.2 77.2 100% 78 29.99 0.0
02 22:35 Calm 10.00 Fair CLR 77.9 77.9 100% 80 29.99 0.0
02 22:15 S 3 10.00 Fair CLR 78.3 77.9 99% 81 29.99 0.0
02 21:55 Calm 10.00 Fair CLR 78.8 78.1 98% 83 29.98 0.0
02 21:35 Calm 10.00 Fair CLR 78.4 78.4 100% 82 29.98 0.0
02 21:15 Calm 10.00 Fair CLR 78.4 78.3 99% 82 29.98 0.0
02 20:55 Calm 10.00 Fair CLR 79.9 78.3 95% 86 29.97 0.0
02 20:35 Calm 10.00 Fair CLR 79.7 78.4 96% 86 29.97 0.0
02 20:15 Calm 10.00 Fair CLR 80.2 78.6 95% 87 29.96 0.0
02 19:55 Calm 10.00 Fair CLR 81.7 78.4 90% 90 29.96 0.0
02 19:35 Calm 10.00 Fair CLR 82.4 78.1 87% 92 29.96 0.0
02 19:15 Calm 10.00 Fair CLR 83.3 78.1 84% 94 29.96 0.0
02 18:55 Calm 10.00 A Few Clouds FEW130 84 78.3 95.9 84 83% 95 29.97 0.0
02 18:35 S 5 10.00 A Few Clouds FEW130 84.2 78.1 82% 95 29.97 0.0
02 18:15 SW 5 10.00 Fair CLR 84.2 77.7 81% 95 29.96 0.0
02 17:55 Vrbl 6 10.00 Fair CLR 85.3 76.8 76% 96 29.96 0.0
02 17:35 SW 6 10.00 Fair CLR 85.5 76.3 74% 95 29.95 0.0
02 17:15 Vrbl 5 10.00 Fair CLR 86 75.4 71% 95 29.95 0.0
02 16:55 SW 6 10.00 A Few Clouds FEW350 86.4 75.2 69% 96 29.96 0.0
02 16:35 Vrbl 5 10.00 A Few Clouds FEW350 86.2 74.8 69% 95 29.96 0.0
02 16:15 Vrbl 5 10.00 A Few Clouds FEW340 86 75.2 70% 95 29.97 0.0
02 15:55 Vrbl 7 10.00 A Few Clouds FEW200 85.6 75.9 73% 95 29.99 0.0
02 15:35 Vrbl 7 10.00 A Few Clouds FEW200 85.6 75.9 73% 95 29.99 0.0
02 15:15 Vrbl 6 10.00 Partly Cloudy FEW060 SCT380 87.1 75 67% 97 29.99 0.0
02 14:55 SW 10 10.00 Mostly Cloudy BKN060 BKN160 88.9 75.2 64% 99 30 0.0
02 14:35 S 15 10.00 Mostly Cloudy BKN050 BKN160 91.6 73 55% 100 30 0.0
02 14:15 E 8 10.00 Partly Cloudy SCT055 SCT085 93.7 72.5 50% 102 29.99 0.0
02 13:55 E 8 10.00 Partly Cloudy FEW046 SCT055 SCT070 93.4 72.5 51% 102 29.99 0.0
02 13:35 Vrbl 7 10.00 Mostly Cloudy SCT049 SCT055 BKN070 93.9 72.7 50% 103 29.99 0.0
02 13:15 SE 6 10.00 Partly Cloudy SCT050 92.3 72.3 52% 100 30.01 0.0
02 12:55 Vrbl 6 10.00 Partly Cloudy FEW039 SCT055 93 73 94.1 73 52% 102 30.02 0.0
02 12:35 Vrbl 3 10.00 A Few Clouds FEW036 92.8 73.4 53% 102 30.03 0.0
02 12:15 SE 8 10.00 Mostly Cloudy BKN035 BKN047 92.5 74.5 56% 103 30.04 0.0
02 11:55 Vrbl 7 10.00 Mostly Cloudy SCT033 BKN044 90.5 75 61% 101 30.05 0.0
02 11:35 E 7 10.00 Mostly Cloudy BKN030 BKN043 BKN060 89.2 76.3 66% 101 30.05 0.0
02 11:15 SE 8 10.00 Mostly Cloudy FEW027 SCT033 BKN043 BKN060 88.7 77.5 70% 102 30.06 0.0
02 10:55 Vrbl 6 10.00 Partly Cloudy FEW022 SCT029 88.9 78.1 71% 103 30.06 0.0
02 10:35 SE 5 10.00 Partly Cloudy SCT020 88 78.8 74% 103 30.05 0.0
02 10:15 SE 8 10.00 Partly Cloudy SCT018 87.8 79.3 76% 103 30.05 0.0
02 09:55 Vrbl 7 10.00 A Few Clouds FEW014 85.3 79.7 83% 99 30.05 0.0
02 09:35 SE 6 10.00 A Few Clouds FEW012 83.7 79.5 87% 96 30.05 0.0
02 09:15 Vrbl 5 10.00 Partly Cloudy SCT006 81.7 79.2 92% 91 30.05 0.0
02 08:55 E 3 10.00 Overcast OVC006 79.2 78.6 98% 84 30.05 0.0
02 08:35 Vrbl 3 10.00 Overcast OVC006 77.9 77.9 100% 80 30.05 0.0
02 08:15 Vrbl 3 10.00 Overcast OVC006 76.6 76.6 100% 77 30.05 0.0
02 07:55 Calm 10.00 Overcast OVC007 75.6 75.6 100% 74 30.05 0.0
02 07:35 Calm 10.00 Overcast OVC008 75 75 100% 72 30.04 0.0
02 07:15 Calm 10.00 Mostly Cloudy BKN009 73.8 73.8 100% 30.04 0.0
02 06:55 Calm 10.00 Fair CLR 73.2 73.2 77.5 72.1 100% 30.03 0.0
02 06:35 Calm 9.00 Fair CLR 73 73 100% 30.03 0.0
02 06:15 N 3 9.00 Fair CLR 72.5 72.5 100% 30.02 0.0
02 05:55 Calm 8.00 Fair CLR 72.3 72.3 100% 30.01 0.0
02 05:35 Calm 9.00 Fair CLR 73 73 100% 30.01 0.0
02 05:15 Calm 9.00 Fair CLR 73 73 100% 30.01 0.0
02 04:55 Calm 10.00 Fair CLR 73.8 73.8 100% 30 0.0
02 04:35 Calm 10.00 Fair CLR 74.1 74.1 100% 30 0.0
02 04:15 Calm 10.00 Fair CLR 75.2 75.2 100% 73 30 0.0
02 03:55 Calm 10.00 Fair CLR 75 75 100% 72 30 0.0
02 03:35 S 3 10.00 Fair CLR 75.7 75 98% 74 30 0.0
02 03:15 S 5 10.00 Fair CLR 75.6 74.8 98% 74 30 0.0
02 02:55 S 5 10.00 Fair CLR 76.1 74.8 96% 76 30 0.0
02 02:35 S 6 10.00 Fair CLR 76.1 75.2 97% 75 30.01 0.0
02 02:15 Calm 10.00 Fair CLR 75.6 74.7 97% 74 30.01 0.0
02 01:55 SE 3 10.00 Fair CLR 76.1 74.8 96% 76 30.01 0.0
02 01:35 Calm 10.00 Fair CLR 75.9 74.7 96% 75 30.01 0.0
02 01:15 Calm 10.00 Fair CLR 77.4 75.2 93% 79 30.01 0.0
02 00:55 Calm 10.00 Fair CLR 78.1 74.5 92.5 78.1 89% 81 30.01 0.0
02 00:35 S 3 10.00 Fair CLR 78.6 74.5 87% 82 30.01 0.0
02 00:15 SE 5 10.00 A Few Clouds FEW280 79 74.3 86% 83 30.01 0.0
01 23:55 SE 3 5.00 Light Rain BKN280 79.2 74.5 86% 83 30.01 0.0
01 23:35 Calm 10.00 Partly Cloudy SCT280 79.5 74.8 86% 84 30.01 0.0
01 23:15 SE 3 10.00 Partly Cloudy SCT270 80.2 74.1 82% 85 30.01 0.0
01 22:55 SE 3 10.00 Partly Cloudy SCT270 81 73.9 79% 86 30.01 0.0
01 22:35 SE 3 10.00 Fair CLR 81.3 73.8 78% 87 30.01 0.0
01 22:15 Calm 10.00 Fair CLR 81.7 73.8 77% 87 30.01 0.0
01 21:55 Calm 10.00 Fair CLR 82.4 73.9 76% 89 29.99 0.0
01 21:35 SE 3 10.00 Fair CLR 82.9 73.8 74% 89 29.99 0.0
01 21:15 SE 5 10.00 Fair CLR 83.7 73.6 72% 90 29.99 0.0
01 20:55 SE 6 10.00 Fair CLR 84.6 73.8 70% 92 29.98 0.0
01 20:35 SE 7 10.00 A Few Clouds FEW055 85.1 73.8 69% 93 29.97 0.0
01 20:15 S 12 10.00 Fair CLR 86.2 73.6 66% 94 29.98 0.0
01 19:55 S 9 10.00 Partly Cloudy SCT055 88 73.4 62% 96 29.97 0.0
01 19:35 SE 3 10.00 Partly Cloudy SCT060 90 71.6 55% 97 29.96 0.0
01 19:15 E 5 10.00 Fair CLR 91.2 71.2 52% 98 29.95 0.0
01 18:55 E 7 10.00 Fair CLR 93.2 70.9 96.6 91.8 48% 100 29.95 0.0
01 18:35 E 9 10.00 Fair CLR 93.6 70.5 47% 100 29.95 0.0
01 18:15 E 10 10.00 Fair CLR 94.5 70.5 46% 101 29.95 0.0
01 17:55 E 8 10.00 Fair CLR 95.5 70.2 44% 102 29.95 0.0
01 17:35 E 8 10.00 Fair CLR 95.4 69.8 44% 102 29.95 0.0
01 17:15 E 8 10.00 Fair CLR 95.5 70.2 44% 102 29.95 0.0
01 16:55 E 9 G 17 10.00 Fair CLR 95.7 70.2 44% 102 29.95 0.0
01 16:35 E 10 10.00 Fair CLR 95.7 69.6 43% 102 29.95 0.0
01 16:15 E 8 G 17 10.00 A Few Clouds FEW060 96.1 70.2 43% 103 29.96 0.0
01 15:55 E 10 10.00 A Few Clouds FEW055 96.3 70.2 43% 103 29.98 0.0
01 15:35 E 14 10.00 Partly Cloudy SCT055 95.9 69.4 42% 102 29.99 0.0
01 15:15 E 10 10.00 Partly Cloudy SCT055 95.5 70.3 44% 102 30 0.0
01 14:55 SE 8 10.00 Partly Cloudy SCT050 94.3 70.7 46% 101 30.01 0.0
01 14:35 E 8 G 17 10.00 A Few Clouds FEW050 94.6 71.4 47% 102 30.01 0.0
01 14:15 E 10 10.00 Partly Cloudy SCT049 93.7 70.9 47% 101 30.01 0.0
01 13:55 SE 8 10.00 Fair CLR 94.5 70.9 46% 102 30.02 0.0
01 13:35 E 12 G 17 10.00 Fair CLR 94.3 70.3 46% 101 30.03 0.0
01 13:15 E 9 10.00 Fair CLR 91.8 71.2 51% 99 30.03 0.0
01 12:55 E 9 10.00 Fair CLR 91.2 71.4 92.3 72.5 52% 98 30.04 0.0
01 12:35 E 8 10.00 A Few Clouds FEW038 91.9 72.1 52% 100 30.04 0.0
01 12:15 NE 9 10.00 Fair CLR 89.8 72.5 57% 97 30.05 0.0
01 11:55 E 10 10.00 Fair CLR 90 72.1 56% 97 30.06 0.0
01 11:35 Vrbl 6 10.00 Fair CLR 88.7 72.9 60% 96 30.06 0.0
01 11:15 E 6 10.00 Fair CLR 87.8 73.6 63% 96 30.06 0.0
01 10:55 SE 7 10.00 Fair CLR 87.1 73.9 65% 95 30.07 0.0
01 10:35 E 6 10.00 Fair CLR 86.4 74.1 67% 95 30.07 0.0
01 10:15 SE 6 10.00 Fair CLR 85.5 75.2 71% 94 30.07 0.0
01 09:55 SE 6 10.00 Fair CLR 84.6 75.9 75% 94 30.07 0.0
01 09:35 SE 6 10.00 Fair CLR 83.8 76.3 78% 93 30.07 0.0
01 09:15 E 3 9.00 Fair CLR 81.1 76.1 85% 88 30.07 0.0
01 08:55 Calm 9.00 Fair CLR 79 75.9 90% 83 30.07 0.0
01 08:35 NE 3 9.00 Fair CLR 77.9 75.7 93% 80 30.07 0.0
01 08:15 Calm 10.00 Fair CLR 77 75.6 95% 78 30.06 0.0
01 07:55 Calm 9.00 A Few Clouds FEW100 75.2 75.2 100% 73 30.06 0.0
01 07:35 Calm 9.00 Mostly Cloudy BKN100 73.8 73.8 100% 30.05 0.0
01 07:15 Calm 9.00 Partly Cloudy SCT100 73.8 73.8 100% 30.05 0.0
01 06:55 Calm 9.00 Partly Cloudy SCT100 72.5 72.5 78.4 72.5 100% 30.04 0.0
01 06:35 Calm 9.00 Partly Cloudy SCT100 72.7 72.7 100% 30.04 0.0
01 06:15 Calm 10.00 Fair CLR 72.9 72.9 100% 30.04 0.0
01 05:55 Calm 10.00 Fair CLR 72.5 72.5 100% 30.03 0.0
01 05:35 Calm 10.00 Fair CLR 72.9 72.9 100% 30.03 0.0
01 05:15 Calm 10.00 Fair CLR 73 73 100% 30.03 0.0
01 04:55 Calm 10.00 Fair CLR 73.2 73.2 100% 30.03 0.0
01 04:35 Calm 10.00 Fair CLR 73.4 73.4 100% 30.03 0.0
01 04:15 Calm 10.00 Fair CLR 73.6 73.6 100% 30.03 0.0
01 03:55 Calm 10.00 Fair CLR 74.3 74.1 99% 30.03 0.0
01 03:35 Calm 10.00 Fair CLR 74.1 73.8 99% 30.02 0.0
01 03:15 Calm 10.00 Fair CLR 74.5 73.9 98% 30.02 0.0
01 02:55 Calm 10.00 Fair CLR 74.8 73.6 96% 30.02 0.0
01 02:35 Calm 10.00 Fair CLR 75.2 73.6 95% 74 30.02 0.0
01 02:15 Calm 10.00 Fair CLR 76.3 73.4 91% 77 30.02 0.0
01 01:55 Calm 10.00 Fair CLR 77.5 73.4 87% 79 30.02 0.0
01 01:35 Calm 10.00 Fair CLR 77.9 73.2 86% 80 30.02 0.0
01 01:15 S 3 10.00 Fair CLR 78.1 73 85% 81 30.02 0.0
01 00:55 S 5 10.00 Fair CLR 78.4 73.2 93.2 76.3 84% 81 30.02 0.0
01 00:35 S 7 10.00 Fair CLR 78.6 72.9 83% 82 30.01 0.0
01 00:15 S 7 10.00 Fair CLR 77.9 73.2 86% 80 30.01 0.0
31 23:55 Calm 10.00 Fair CLR 76.6 73 89% 77 30 0.0
31 23:35 Calm 10.00 Fair CLR 76.8 73 88% 78 30 0.0
31 23:15 Calm 10.00 Fair CLR 77.5 72.9 86% 79 30 0.0
Date Time (cdt) Wind (mph) Vis. (mi.) Weather Sky Cond. Air Dwpt Max. Min. Relative Humidity Wind Chill (°F) Heat Index (°F) altimeter (in) sea level (mb) 1 hr 3 hr 6 hr
6 hour
Temperature (ºF) Pressure Precipitation (in)